Time;durP1;ratioP1;P1;durP2;ratioP2;P2;SDS_P1;SDS_P2;PMS_P1;PMS_P2;Temp;Humidity;BMP_temperature;BMP_pressure;BME280_temperature;BME280_humidity;BME280_pressure;Samples;Min_cycle;Max_cycle;Signal;HPM_P1;HPM_P2
2022/05/09 00:01:26;;;;;;;13.20;8.30;;;;;;;;;;6229018;22;20663;-54
2022/05/09 00:03:54;;;;;;;7.90;7.10;;;;;;;;;;6232523;23;20481;-53
2022/05/09 00:06:33;;;;;;;9.10;8.13;;;;;;;;;;6261216;22;20480;-53
2022/05/09 00:09:01;;;;;;;8.57;7.70;;;;;;;;;;6227446;22;20387;-53
2022/05/09 00:11:58;;;;;;;9.10;8.20;;;;;;;;;;6238595;22;20426;-53
2022/05/09 00:14:26;;;;;;;10.77;9.03;;;;;;;;;;6238055;22;20401;-53
2022/05/09 00:17:03;;;;;;;8.43;7.07;;;;;;;;;;6223587;22;20745;-55
2022/05/09 00:19:32;;;;;;;10.13;8.33;;;;;;;;;;6236459;22;20417;-53
2022/05/09 00:22:00;;;;;;;7.57;6.80;;;;;;;;;;6235918;22;21002;-53
2022/05/09 00:24:26;;;;;;;7.93;7.23;;;;;;;;;;6238137;23;20431;-54
2022/05/09 00:27:04;;;;;;;7.97;7.13;;;;;;;;;;6228579;22;20430;-55
2022/05/09 00:29:31;;;;;;;8.80;7.97;;;;;;;;;;6241690;22;20487;-53
2022/05/09 00:32:24;;;;;;;10.10;8.10;;;;;;;;;;6221480;22;20844;-55
2022/05/09 00:34:52;;;;;;;9.73;8.17;;;;;;;;;;6237214;22;20440;-52
2022/05/09 00:37:38;;;;;;;9.03;7.80;;;;;;;;;;6223166;22;20436;-53
2022/05/09 00:40:12;;;;;;;10.63;8.43;;;;;;;;;;6240110;22;20366;-53
2022/05/09 00:43:21;;;;;;;9.60;7.93;;;;;;;;;;6233822;22;20385;-54
2022/05/09 00:45:53;;;;;;;12.77;8.50;;;;;;;;;;6239260;22;20437;-54
2022/05/09 00:48:26;;;;;;;11.57;7.93;;;;;;;;;;6222156;22;20774;-54
2022/05/09 00:50:55;;;;;;;10.43;7.30;;;;;;;;;;6238425;22;20383;-53
2022/05/09 00:53:21;;;;;;;9.20;8.30;;;;;;;;;;6235357;23;20386;-52
2022/05/09 00:55:49;;;;;;;9.30;7.77;;;;;;;;;;6242057;22;20452;-53
2022/05/09 00:58:27;;;;;;;8.03;7.13;;;;;;;;;;6226480;22;20380;-53
2022/05/09 01:00:55;;;;;;;11.07;8.20;;;;;;;;;;6235311;23;20377;-53
2022/05/09 01:03:41;;;;;;;9.87;8.27;;;;;;;;;;6234293;22;20362;-54
2022/05/09 01:06:19;;;;;;;10.70;7.67;;;;;;;;;;6238539;22;20837;-53
2022/05/09 01:11:48;;;;;;;8.40;7.20;;;;;;;;;;6231845;23;20376;-54
2022/05/09 01:14:19;;;;;;;8.83;7.80;;;;;;;;;;6237970;22;20390;-53
2022/05/09 01:16:47;;;;;;;9.07;8.10;;;;;;;;;;6232953;23;20378;-53
2022/05/09 01:19:30;;;;;;;9.30;8.40;;;;;;;;;;6239462;22;20374;-53
2022/05/09 01:21:56;;;;;;;9.53;8.10;;;;;;;;;;6231438;22;20394;-54
2022/05/09 01:24:24;;;;;;;9.63;8.50;;;;;;;;;;6237308;23;20385;-52
2022/05/09 01:26:50;;;;;;;10.00;8.90;;;;;;;;;;6224729;22;20442;-52
2022/05/09 01:29:18;;;;;;;9.07;8.27;;;;;;;;;;6242826;22;20478;-54
2022/05/09 01:31:44;;;;;;;10.43;8.00;;;;;;;;;;6222992;22;20378;-55
2022/05/09 01:34:10;;;;;;;10.30;9.20;;;;;;;;;;6237288;22;20451;-53
2022/05/09 01:36:36;;;;;;;10.00;8.00;;;;;;;;;;6215364;22;20409;-52
2022/05/09 01:39:03;;;;;;;11.20;9.80;;;;;;;;;;6239036;22;20932;-53
2022/05/09 01:41:35;;;;;;;9.90;8.90;;;;;;;;;;6224562;22;20371;-52
2022/05/09 01:44:01;;;;;;;9.03;8.03;;;;;;;;;;6237898;22;20421;-52
2022/05/09 01:46:28;;;;;;;10.60;9.47;;;;;;;;;;6221259;23;20470;-54
2022/05/09 01:51:40;;;;;;;10.00;8.27;;;;;;;;;;6232827;23;21015;-54
2022/05/09 01:54:07;;;;;;;12.33;9.60;;;;;;;;;;6236552;22;20974;-54
2022/05/09 01:56:33;;;;;;;11.40;10.03;;;;;;;;;;6222990;23;20464;-54
2022/05/09 01:59:00;;;;;;;12.37;9.27;;;;;;;;;;6240615;22;20381;-54
2022/05/09 02:01:27;;;;;;;9.50;8.50;;;;;;;;;;6234642;22;20369;-55
2022/05/09 02:03:53;;;;;;;13.07;9.43;;;;;;;;;;6238091;23;20371;-54
2022/05/09 02:06:20;;;;;;;10.90;8.73;;;;;;;;;;6221694;23;20740;-53
2022/05/09 02:08:46;;;;;;;12.27;10.23;;;;;;;;;;6241527;22;20857;-53
2022/05/09 02:11:12;;;;;;;9.33;8.13;;;;;;;;;;6202590;22;20873;-51
2022/05/09 02:13:40;;;;;;;9.57;8.57;;;;;;;;;;6238021;22;20377;-54
2022/05/09 02:16:07;;;;;;;13.07;9.57;;;;;;;;;;6231529;23;20389;-53
2022/05/09 02:18:52;;;;;;;12.77;8.47;;;;;;;;;;6237185;22;20643;-54
2022/05/09 02:21:23;;;;;;;10.90;9.40;;;;;;;;;;6236264;22;20387;-53
2022/05/09 02:23:49;;;;;;;10.10;9.10;;;;;;;;;;6235221;23;20355;-55
2022/05/09 02:26:16;;;;;;;11.87;9.57;;;;;;;;;;6238813;22;20426;-53
2022/05/09 02:28:54;;;;;;;10.73;9.63;;;;;;;;;;6230291;22;20383;-53
2022/05/09 02:31:23;;;;;;;11.73;8.97;;;;;;;;;;6234558;22;20379;-52
2022/05/09 02:33:57;;;;;;;10.50;8.87;;;;;;;;;;6237405;22;20961;-53
2022/05/09 02:36:25;;;;;;;11.17;9.13;;;;;;;;;;6239207;22;20880;-54
2022/05/09 02:39:17;;;;;;;11.53;9.03;;;;;;;;;;6234973;22;20461;-54
2022/05/09 02:41:44;;;;;;;9.57;8.63;;;;;;;;;;6239975;22;20461;-52
2022/05/09 02:44:23;;;;;;;11.73;10.23;;;;;;;;;;6231737;22;20394;-53
2022/05/09 02:46:50;;;;;;;11.87;8.97;;;;;;;;;;6239615;22;20437;-53
2022/05/09 02:49:55;;;;;;;10.63;8.83;;;;;;;;;;6230345;22;20450;-54
2022/05/09 02:52:21;;;;;;;14.83;9.37;;;;;;;;;;6240191;22;20374;-54
2022/05/09 02:54:47;;;;;;;11.60;9.57;;;;;;;;;;6235617;23;20448;-53
2022/05/09 02:57:14;;;;;;;10.73;9.50;;;;;;;;;;6239687;22;20385;-56
2022/05/09 02:59:48;;;;;;;10.50;9.10;;;;;;;;;;6230807;22;20377;-52
2022/05/09 03:02:15;;;;;;;10.30;9.17;;;;;;;;;;6236886;23;20397;-53
2022/05/09 03:05:08;;;;;;;10.93;9.17;;;;;;;;;;6228972;22;20379;-53
2022/05/09 03:07:34;;;;;;;10.73;9.67;;;;;;;;;;6242108;22;20448;-52
2022/05/09 03:10:00;;;;;;;10.13;8.57;;;;;;;;;;6227921;22;20440;-53
2022/05/09 03:12:26;;;;;;;10.67;9.67;;;;;;;;;;6240348;22;20378;-54
2022/05/09 03:14:53;;;;;;;12.87;9.60;;;;;;;;;;6237929;22;20398;-54
2022/05/09 03:17:19;;;;;;;10.57;9.57;;;;;;;;;;6239988;22;20387;-52
2022/05/09 03:19:45;;;;;;;11.60;8.13;;;;;;;;;;6209193;22;20362;-54
2022/05/09 03:22:13;;;;;;;10.20;8.60;;;;;;;;;;6237204;22;20382;-53
2022/05/09 03:24:40;;;;;;;11.43;9.10;;;;;;;;;;6234636;22;20448;-54
2022/05/09 03:27:12;;;;;;;9.47;8.07;;;;;;;;;;6238891;22;20389;-52
2022/05/09 03:29:38;;;;;;;10.63;9.30;;;;;;;;;;6222663;22;20396;-54
2022/05/09 03:32:04;;;;;;;12.63;9.60;;;;;;;;;;6241389;22;20416;-56
2022/05/09 03:34:55;;;;;;;11.33;9.27;;;;;;;;;;6233143;22;20386;-53
2022/05/09 03:37:21;;;;;;;9.73;8.83;;;;;;;;;;6241443;22;20448;-53
2022/05/09 03:39:47;;;;;;;10.63;9.53;;;;;;;;;;6233275;23;20393;-53
2022/05/09 03:42:13;;;;;;;16.10;9.20;;;;;;;;;;6239352;23;20374;-51
2022/05/09 03:44:39;;;;;;;11.37;10.20;;;;;;;;;;6223159;23;20386;-55
2022/05/09 03:47:05;;;;;;;13.20;10.10;;;;;;;;;;6237073;22;20387;-53
2022/05/09 03:49:38;;;;;;;11.17;9.40;;;;;;;;;;6220726;22;20402;-52
2022/05/09 03:52:05;;;;;;;9.93;8.57;;;;;;;;;;6237524;22;20873;-53
2022/05/09 03:54:46;;;;;;;11.20;10.10;;;;;;;;;;6208135;22;20374;-55
2022/05/09 03:57:15;;;;;;;9.57;8.67;;;;;;;;;;6231159;22;20374;-53
2022/05/09 04:00:14;;;;;;;11.03;9.77;;;;;;;;;;6233055;22;20374;-53
2022/05/09 04:02:46;;;;;;;11.17;9.17;;;;;;;;;;6239456;22;20397;-54
2022/05/09 04:05:17;;;;;;;10.13;9.00;;;;;;;;;;6222406;22;20452;-54
2022/05/09 04:07:51;;;;;;;10.40;9.30;;;;;;;;;;6236564;22;20935;-53
2022/05/09 04:10:24;;;;;;;11.40;9.80;;;;;;;;;;6222054;22;20374;-50
2022/05/09 04:12:51;;;;;;;11.70;10.50;;;;;;;;;;6240129;22;20675;-53
2022/05/09 04:18:07;;;;;;;14.00;10.30;;;;;;;;;;6238081;23;20401;-54
2022/05/09 04:20:33;;;;;;;11.70;10.47;;;;;;;;;;6226432;22;20378;-52
2022/05/09 04:23:00;;;;;;;11.73;9.60;;;;;;;;;;6237646;22;20435;-52
2022/05/09 04:25:27;;;;;;;10.90;9.37;;;;;;;;;;6212598;22;20430;-52
2022/05/09 04:28:10;;;;;;;12.47;9.40;;;;;;;;;;6235029;23;20422;-53
2022/05/09 04:31:03;;;;;;;11.53;10.27;;;;;;;;;;6210293;22;20630;-52
2022/05/09 04:33:31;;;;;;;10.90;9.70;;;;;;;;;;6238234;22;20397;-53
2022/05/09 04:36:04;;;;;;;11.33;10.17;;;;;;;;;;6218327;22;20865;-53
2022/05/09 04:38:31;;;;;;;12.33;10.20;;;;;;;;;;6235255;22;20481;-53
2022/05/09 04:41:05;;;;;;;14.43;10.43;;;;;;;;;;6220499;22;20853;-53
2022/05/09 04:43:32;;;;;;;13.60;10.33;;;;;;;;;;6219198;22;20821;-51
2022/05/09 04:46:00;;;;;;;10.80;9.57;;;;;;;;;;6237613;22;20433;-51
2022/05/09 04:48:26;;;;;;;12.40;10.40;;;;;;;;;;6217590;22;20373;-51
2022/05/09 04:50:52;;;;;;;13.03;10.70;;;;;;;;;;6238991;22;20374;-51
2022/05/09 04:53:18;;;;;;;11.97;10.77;;;;;;;;;;6232976;22;20373;-52
2022/05/09 04:55:44;;;;;;;11.90;10.70;;;;;;;;;;6236123;22;20462;-53
2022/05/09 04:58:11;;;;;;;12.63;11.40;;;;;;;;;;6217641;22;20374;-53
2022/05/09 05:00:38;;;;;;;12.03;10.47;;;;;;;;;;6238343;22;20371;-51
2022/05/09 05:03:33;;;;;;;10.63;9.57;;;;;;;;;;6231303;22;20571;-50
2022/05/09 05:06:00;;;;;;;14.10;10.50;;;;;;;;;;6240277;22;20433;-52
2022/05/09 05:08:30;;;;;;;16.63;10.80;;;;;;;;;;6223184;23;20389;-51
2022/05/09 05:10:56;;;;;;;11.53;10.40;;;;;;;;;;6238585;22;20385;-56
2022/05/09 05:13:23;;;;;;;12.00;10.17;;;;;;;;;;6234631;22;20376;-51
2022/05/09 05:15:49;;;;;;;12.23;10.83;;;;;;;;;;6236289;22;20382;-50
2022/05/09 05:18:20;;;;;;;10.43;9.33;;;;;;;;;;6227080;22;20845;-52
2022/05/09 05:20:46;;;;;;;13.37;12.00;;;;;;;;;;6236633;23;21036;-50
2022/05/09 05:23:12;;;;;;;13.77;11.33;;;;;;;;;;6225047;22;20558;-50
2022/05/09 05:25:40;;;;;;;11.40;10.23;;;;;;;;;;6211669;22;20525;-51
2022/05/09 05:28:08;;;;;;;11.87;10.67;;;;;;;;;;6228787;22;20461;-50
2022/05/09 05:30:35;;;;;;;12.50;11.33;;;;;;;;;;6204428;22;20371;-50
2022/05/09 05:33:02;;;;;;;13.93;12.23;;;;;;;;;;6237113;22;20423;-50
2022/05/09 05:35:28;;;;;;;17.20;11.40;;;;;;;;;;6217807;22;20782;-51
2022/05/09 05:37:55;;;;;;;11.60;10.40;;;;;;;;;;6231706;22;20877;-50
2022/05/09 05:40:21;;;;;;;14.00;12.60;;;;;;;;;;6215608;22;20724;-51
2022/05/09 05:42:52;;;;;;;12.97;11.60;;;;;;;;;;6235233;22;20387;-51
2022/05/09 05:45:20;;;;;;;12.90;11.03;;;;;;;;;;6228618;22;20511;-51
2022/05/09 05:47:47;;;;;;;14.70;12.23;;;;;;;;;;6242024;22;20853;-52
2022/05/09 05:50:14;;;;;;;13.27;10.80;;;;;;;;;;6224290;22;20386;-52
2022/05/09 05:52:40;;;;;;;13.80;11.37;;;;;;;;;;6237561;22;20468;-52
2022/05/09 05:55:06;;;;;;;13.63;12.13;;;;;;;;;;6232012;22;20468;-48
2022/05/09 05:57:33;;;;;;;14.80;11.40;;;;;;;;;;6230078;22;20393;-52
2022/05/09 06:00:28;;;;;;;13.60;12.00;;;;;;;;;;6236979;22;20912;-52
2022/05/09 06:02:59;;;;;;;13.33;12.03;;;;;;;;;;6221487;22;20863;-51
2022/05/09 06:05:25;;;;;;;14.03;11.57;;;;;;;;;;6228559;22;20986;-50
2022/05/09 06:07:55;;;;;;;14.80;12.00;;;;;;;;;;6218840;22;20183;-51
2022/05/09 06:10:21;;;;;;;14.03;12.53;;;;;;;;;;6238578;22;20382;-50
2022/05/09 06:12:58;;;;;;;13.00;11.60;;;;;;;;;;6223628;22;20382;-51
2022/05/09 06:15:36;;;;;;;14.10;12.60;;;;;;;;;;6219504;23;20374;-51
2022/05/09 06:18:15;;;;;;;14.50;12.03;;;;;;;;;;6228421;22;20379;-51
2022/05/09 06:21:39;;;;;;;12.00;10.80;;;;;;;;;;6213284;22;20931;-52
2022/05/09 06:27:35;;;;;;;12.10;10.87;;;;;;;;;;6229924;23;20779;-51
2022/05/09 06:30:30;;;;;;;11.93;10.73;;;;;;;;;;6234399;22;20366;-51
2022/05/09 06:32:59;;;;;;;13.20;10.57;;;;;;;;;;6237507;22;20456;-49
2022/05/09 06:35:26;;;;;;;14.40;11.80;;;;;;;;;;6231858;22;20532;-51
2022/05/09 06:38:01;;;;;;;12.00;10.90;;;;;;;;;;6239710;22;20814;-51
2022/05/09 06:40:28;;;;;;;13.33;11.93;;;;;;;;;;6222432;22;20541;-50
2022/05/09 06:42:55;;;;;;;12.07;10.87;;;;;;;;;;6237636;22;20381;-50
2022/05/09 06:45:22;;;;;;;12.23;10.90;;;;;;;;;;6227033;22;20432;-50
2022/05/09 06:47:48;;;;;;;12.77;11.27;;;;;;;;;;6237203;22;20461;-50
2022/05/09 06:50:21;;;;;;;11.40;10.13;;;;;;;;;;6228748;22;20599;-55
2022/05/09 06:52:51;;;;;;;12.63;11.43;;;;;;;;;;6242619;22;20449;-50
2022/05/09 06:55:21;;;;;;;10.10;9.10;;;;;;;;;;6232943;22;21151;-51
2022/05/09 06:57:49;;;;;;;11.77;10.37;;;;;;;;;;6223761;22;20392;-51
2022/05/09 07:00:16;;;;;;;10.73;9.73;;;;;;;;;;6220535;22;20375;-51
2022/05/09 07:02:42;;;;;;;12.30;10.43;;;;;;;;;;6239031;22;20378;-51
2022/05/09 08:30:35;;;;;;;9.53;8.63;;;;;;;;;;6196405;23;20404;-62
2022/05/09 08:33:02;;;;;;;9.10;8.20;;;;;;;;;;6233222;23;20473;-62
2022/05/09 08:35:28;;;;;;;9.37;8.47;;;;;;;;;;6211696;22;20381;-61
2022/05/09 08:37:58;;;;;;;9.50;8.57;;;;;;;;;;6225587;23;20370;-61
2022/05/09 08:40:29;;;;;;;10.20;9.20;;;;;;;;;;6240297;23;20444;-62
2022/05/09 08:43:02;;;;;;;10.33;9.33;;;;;;;;;;6199519;23;20808;-62
2022/05/09 08:45:37;;;;;;;8.53;7.83;;;;;;;;;;6237486;23;20421;-61
2022/05/09 08:48:05;;;;;;;9.17;8.13;;;;;;;;;;6225252;23;20819;-61
2022/05/09 08:50:36;;;;;;;14.70;9.03;;;;;;;;;;6220757;23;20371;-62
2022/05/09 08:53:12;;;;;;;10.20;8.17;;;;;;;;;;6237210;22;20374;-62
2022/05/09 08:55:41;;;;;;;8.77;7.87;;;;;;;;;;6235797;23;20401;-62
2022/05/09 08:58:22;;;;;;;10.30;9.10;;;;;;;;;;6235081;23;20772;-62
2022/05/09 09:00:50;;;;;;;8.60;7.80;;;;;;;;;;6199183;23;20733;-62
2022/05/09 09:03:17;;;;;;;10.73;8.07;;;;;;;;;;6232284;23;20393;-65
2022/05/09 09:05:51;;;;;;;10.97;8.00;;;;;;;;;;6215789;23;20610;-62
2022/05/09 09:08:26;;;;;;;9.53;8.40;;;;;;;;;;6237143;23;20389;-64
2022/05/09 09:11:04;;;;;;;9.77;8.37;;;;;;;;;;6219611;23;20396;-62
2022/05/09 09:13:49;;;;;;;9.73;8.37;;;;;;;;;;6235734;23;20365;-66
2022/05/09 09:16:20;;;;;;;9.50;7.90;;;;;;;;;;6223846;22;20370;-61
2022/05/09 09:18:46;;;;;;;9.07;8.27;;;;;;;;;;6235318;23;20371;-62
2022/05/09 09:21:30;;;;;;;9.00;8.20;;;;;;;;;;6230909;23;20824;-63
2022/05/09 09:23:57;;;;;;;10.73;9.00;;;;;;;;;;6235443;23;20140;-63
2022/05/09 09:26:34;;;;;;;8.70;8.00;;;;;;;;;;6219753;23;20830;-60
2022/05/09 09:29:20;;;;;;;10.23;9.00;;;;;;;;;;6235700;22;20424;-63
2022/05/09 09:31:51;;;;;;;9.83;8.93;;;;;;;;;;6219477;23;20390;-62
2022/05/09 09:34:17;;;;;;;10.57;9.50;;;;;;;;;;6237066;23;20382;-64
2022/05/09 09:36:46;;;;;;;9.63;8.73;;;;;;;;;;6229145;23;20374;-63
2022/05/09 09:39:17;;;;;;;8.73;7.93;;;;;;;;;;6235195;23;20587;-63
2022/05/09 09:41:43;;;;;;;9.67;8.77;;;;;;;;;;6211932;23;20370;-65
2022/05/09 09:44:16;;;;;;;9.27;8.37;;;;;;;;;;6234678;22;20378;-62
2022/05/09 09:47:01;;;;;;;11.87;8.57;;;;;;;;;;6219833;23;20436;-62
2022/05/09 09:49:26;;;;;;;9.73;8.73;;;;;;;;;;6233772;23;20785;-62
2022/05/09 09:51:52;;;;;;;14.43;9.73;;;;;;;;;;6227350;23;20386;-62
2022/05/09 09:54:37;;;;;;;9.43;8.53;;;;;;;;;;6234014;23;20358;-62
2022/05/09 09:57:17;;;;;;;8.70;7.80;;;;;;;;;;6220406;23;20173;-64
2022/05/09 09:59:43;;;;;;;8.63;7.77;;;;;;;;;;6232616;22;20358;-61
2022/05/09 10:02:17;;;;;;;9.27;8.30;;;;;;;;;;6227997;23;20596;-60
2022/05/09 10:04:43;;;;;;;9.53;8.70;;;;;;;;;;6230028;23;20401;-60
2022/05/09 10:07:39;;;;;;;11.30;8.80;;;;;;;;;;6225966;23;20433;-63
2022/05/09 10:10:15;;;;;;;13.73;8.87;;;;;;;;;;6227596;22;20371;-61
2022/05/09 10:12:42;;;;;;;10.20;8.20;;;;;;;;;;6230964;23;20383;-65
2022/05/09 10:15:36;;;;;;;10.27;9.27;;;;;;;;;;6201329;22;20563;-62
2022/05/09 10:18:21;;;;;;;8.77;7.97;;;;;;;;;;6225399;22;20374;-65
2022/05/09 10:20:48;;;;;;;8.10;7.40;;;;;;;;;;6229060;23;20536;-63
2022/05/09 10:26:04;;;;;;;7.33;6.63;;;;;;;;;;6212856;23;20460;-62
2022/05/09 10:28:38;;;;;;;7.77;7.07;;;;;;;;;;6228919;23;20371;-62
2022/05/09 10:31:17;;;;;;;9.03;7.33;;;;;;;;;;6182316;23;20456;-64
2022/05/09 10:34:03;;;;;;;7.83;7.03;;;;;;;;;;6231833;23;20393;-61
2022/05/09 10:36:35;;;;;;;8.00;7.20;;;;;;;;;;6216276;23;20923;-61
2022/05/09 10:39:07;;;;;;;7.43;6.73;;;;;;;;;;6228364;23;20381;-64
2022/05/09 10:41:50;;;;;;;7.57;6.83;;;;;;;;;;6222916;23;20483;-63
2022/05/09 10:44:17;;;;;;;7.93;7.23;;;;;;;;;;6231903;23;20824;-63
2022/05/09 10:46:48;;;;;;;7.13;6.50;;;;;;;;;;6203838;22;20625;-62
2022/05/09 10:49:19;;;;;;;7.30;6.60;;;;;;;;;;6229812;23;20406;-62
2022/05/09 10:51:48;;;;;;;7.40;6.70;;;;;;;;;;6228634;23;20860;-62
2022/05/09 10:54:26;;;;;;;8.97;8.10;;;;;;;;;;6234620;23;20428;-62
2022/05/09 10:57:00;;;;;;;9.20;7.93;;;;;;;;;;6193073;23;20566;-61
2022/05/09 10:59:27;;;;;;;8.23;7.53;;;;;;;;;;6230113;23;20702;-62
2022/05/09 11:01:56;;;;;;;7.93;7.23;;;;;;;;;;6217417;23;20374;-62
2022/05/09 11:04:27;;;;;;;9.77;8.87;;;;;;;;;;6205462;22;20359;-62
2022/05/09 11:07:18;;;;;;;8.80;7.90;;;;;;;;;;6230254;23;20441;-61
2022/05/09 11:09:53;;;;;;;8.53;7.70;;;;;;;;;;6220992;23;20391;-60
2022/05/09 11:12:31;;;;;;;7.80;7.10;;;;;;;;;;6231566;23;21143;-63
2022/05/09 11:15:00;;;;;;;8.80;8.00;;;;;;;;;;6217748;23;20378;-59
2022/05/09 11:17:31;;;;;;;9.07;8.03;;;;;;;;;;6228730;23;20373;-62
2022/05/09 11:20:05;;;;;;;7.77;7.07;;;;;;;;;;6195487;23;20508;-61
2022/05/09 11:22:51;;;;;;;8.37;7.47;;;;;;;;;;6229889;23;20440;-60
2022/05/09 11:25:22;;;;;;;8.47;7.77;;;;;;;;;;6221690;23;20872;-61
2022/05/09 11:28:01;;;;;;;7.07;6.47;;;;;;;;;;6228156;23;20374;-61
2022/05/09 11:30:37;;;;;;;8.50;7.70;;;;;;;;;;6214408;23;20416;-62
2022/05/09 11:33:03;;;;;;;8.30;7.60;;;;;;;;;;6230487;23;20410;-61
2022/05/09 11:35:39;;;;;;;6.83;6.27;;;;;;;;;;6214165;23;20950;-62
2022/05/09 11:41:40;;;;;;;7.07;6.37;;;;;;;;;;6209811;22;20460;-62
2022/05/09 11:44:17;;;;;;;11.40;7.37;;;;;;;;;;6230620;23;20385;-59
2022/05/09 11:47:04;;;;;;;7.73;7.03;;;;;;;;;;6219688;22;20429;-62
2022/05/09 11:49:54;;;;;;;7.07;6.27;;;;;;;;;;6216952;23;20513;-62
2022/05/09 11:52:28;;;;;;;8.53;6.57;;;;;;;;;;6230773;23;20354;-64
2022/05/09 11:55:02;;;;;;;7.40;6.67;;;;;;;;;;6198410;23;20880;-62
2022/05/09 11:57:31;;;;;;;7.17;6.23;;;;;;;;;;6226623;23;20827;-62
2022/05/09 12:00:07;;;;;;;6.83;6.23;;;;;;;;;;6222352;23;20977;-61
2022/05/09 12:02:46;;;;;;;8.10;5.70;;;;;;;;;;6229261;22;20689;-64
2022/05/09 12:05:28;;;;;;;7.47;6.70;;;;;;;;;;6213702;23;20386;-65
2022/05/09 12:08:17;;;;;;;8.03;5.33;;;;;;;;;;6213668;22;21290;-62
2022/05/09 12:10:52;;;;;;;7.60;5.10;;;;;;;;;;6202646;22;20409;-64
2022/05/09 12:13:25;;;;;;;15.10;7.17;;;;;;;;;;6213574;23;20989;-62
2022/05/09 12:15:51;;;;;;;9.10;6.20;;;;;;;;;;6229388;23;20828;-64
2022/05/09 12:18:26;;;;;;;7.60;5.40;;;;;;;;;;6212123;23;20378;-62
2022/05/09 12:20:54;;;;;;;7.30;6.60;;;;;;;;;;6229544;23;20733;-63
2022/05/09 12:23:39;;;;;;;6.77;6.27;;;;;;;;;;6204424;23;20377;-63
2022/05/09 12:26:05;;;;;;;7.20;5.77;;;;;;;;;;6229717;22;20267;-65
2022/05/09 12:28:36;;;;;;;11.43;6.60;;;;;;;;;;6224267;22;20892;-62
2022/05/09 12:31:04;;;;;;;6.83;5.97;;;;;;;;;;6229087;23;20384;-63
2022/05/09 12:33:34;;;;;;;6.30;5.30;;;;;;;;;;6224439;22;20525;-62
2022/05/09 12:36:02;;;;;;;5.83;5.33;;;;;;;;;;6231976;22;20437;-62
2022/05/09 12:38:31;;;;;;;6.80;5.87;;;;;;;;;;6213120;23;20399;-61
2022/05/09 12:41:02;;;;;;;6.83;6.23;;;;;;;;;;6231040;23;20746;-61
2022/05/09 12:43:35;;;;;;;5.77;5.27;;;;;;;;;;6212877;23;20682;-63
2022/05/09 12:46:04;;;;;;;7.40;6.00;;;;;;;;;;6228888;23;20437;-62
2022/05/09 12:48:30;;;;;;;5.63;5.13;;;;;;;;;;6211940;23;21315;-64
2022/05/09 12:51:02;;;;;;;6.00;5.40;;;;;;;;;;6230120;23;20421;-63
2022/05/09 12:53:42;;;;;;;7.47;6.10;;;;;;;;;;6217931;23;20371;-64
2022/05/09 12:56:16;;;;;;;5.93;5.40;;;;;;;;;;6232533;22;20393;-63
2022/05/09 12:58:47;;;;;;;6.27;5.77;;;;;;;;;;6225241;23;20920;-63
2022/05/09 13:01:13;;;;;;;6.07;5.50;;;;;;;;;;6214154;23;20386;-61
2022/05/09 13:03:43;;;;;;;7.63;6.47;;;;;;;;;;6234716;23;20389;-64
2022/05/09 13:06:12;;;;;;;6.10;5.60;;;;;;;;;;6219181;23;20765;-63
2022/05/09 13:08:39;;;;;;;6.20;5.70;;;;;;;;;;6233222;23;20411;-65
2022/05/09 13:11:05;;;;;;;6.10;5.60;;;;;;;;;;6218294;22;21092;-61
2022/05/09 13:13:32;;;;;;;6.70;6.10;;;;;;;;;;6231145;23;20634;-60
2022/05/09 13:15:58;;;;;;;6.47;5.87;;;;;;;;;;6216860;23;20423;-64
2022/05/09 13:18:28;;;;;;;6.23;5.73;;;;;;;;;;6232970;23;20369;-61
2022/05/09 13:20:58;;;;;;;6.03;5.53;;;;;;;;;;6218971;22;20381;-63
2022/05/09 13:23:34;;;;;;;8.33;5.90;;;;;;;;;;6232355;23;20895;-62
2022/05/09 13:26:04;;;;;;;7.00;6.27;;;;;;;;;;6187428;22;20587;-63
2022/05/09 13:28:33;;;;;;;5.63;5.03;;;;;;;;;;6208453;23;20379;-62
2022/05/09 13:31:00;;;;;;;6.03;5.50;;;;;;;;;;6229383;23;20405;-62
2022/05/09 13:33:29;;;;;;;7.03;5.90;;;;;;;;;;6227246;23;20397;-62
2022/05/09 13:35:56;;;;;;;6.23;5.60;;;;;;;;;;6235504;23;20700;-61
2022/05/09 13:38:24;;;;;;;6.13;5.63;;;;;;;;;;6212910;23;20449;-61
2022/05/09 13:40:52;;;;;;;6.20;5.60;;;;;;;;;;6236339;22;20938;-63
2022/05/09 13:43:22;;;;;;;6.57;5.90;;;;;;;;;;6216301;23;20877;-63
2022/05/09 13:45:48;;;;;;;6.57;5.97;;;;;;;;;;6235434;23;20430;-63
2022/05/09 13:48:20;;;;;;;6.20;5.30;;;;;;;;;;6212497;23;20374;-63
2022/05/09 13:50:50;;;;;;;6.30;5.80;;;;;;;;;;6213464;22;20405;-62
2022/05/09 13:53:21;;;;;;;6.10;5.57;;;;;;;;;;6212527;23;20646;-66
2022/05/09 13:55:47;;;;;;;5.63;5.10;;;;;;;;;;6230682;23;20374;-63
2022/05/09 13:58:35;;;;;;;6.10;5.57;;;;;;;;;;6219004;23;20385;-64
2022/05/09 14:01:02;;;;;;;6.60;6.00;;;;;;;;;;6224254;23;21041;-63
2022/05/09 14:03:43;;;;;;;5.90;5.40;;;;;;;;;;6229163;23;20640;-61
2022/05/09 14:06:23;;;;;;;6.90;6.30;;;;;;;;;;6217249;22;20932;-62
2022/05/09 14:08:51;;;;;;;6.77;6.27;;;;;;;;;;6221125;23;20421;-63
2022/05/09 14:11:28;;;;;;;7.10;6.50;;;;;;;;;;6220024;22;20394;-63
2022/05/09 14:14:00;;;;;;;6.30;5.80;;;;;;;;;;6219200;23;20421;-61
2022/05/09 14:16:45;;;;;;;8.10;7.13;;;;;;;;;;6216944;23;20844;-63
2022/05/09 14:19:29;;;;;;;8.43;6.00;;;;;;;;;;6233704;23;20659;-62
2022/05/09 14:22:02;;;;;;;7.83;6.20;;;;;;;;;;6213060;23;20818;-60
2022/05/09 14:24:30;;;;;;;7.00;6.40;;;;;;;;;;6229685;23;20374;-63
2022/05/09 14:30:05;;;;;;;7.83;6.37;;;;;;;;;;6212743;23;20381;-62
2022/05/09 14:32:46;;;;;;;6.83;6.10;;;;;;;;;;6201271;22;20394;-63
2022/05/09 14:35:15;;;;;;;6.10;5.60;;;;;;;;;;6230487;22;20481;-62
2022/05/09 14:37:51;;;;;;;7.07;6.40;;;;;;;;;;6221888;22;20370;-59
2022/05/09 14:40:20;;;;;;;7.20;6.50;;;;;;;;;;6233899;23;20438;-61
2022/05/09 14:42:55;;;;;;;6.53;5.93;;;;;;;;;;6217830;23;20786;-62
2022/05/09 14:45:36;;;;;;;5.70;5.20;;;;;;;;;;6232233;22;20416;-62
2022/05/09 14:48:21;;;;;;;5.80;5.30;;;;;;;;;;6207810;22;20405;-64
2022/05/09 14:50:57;;;;;;;7.70;5.77;;;;;;;;;;6201116;23;20405;-62
2022/05/09 14:53:25;;;;;;;5.40;4.90;;;;;;;;;;6207150;23;20374;-63
2022/05/09 14:59:05;;;;;;;6.10;5.60;;;;;;;;;;6221634;23;20796;-61
2022/05/09 15:01:33;;;;;;;6.00;5.23;;;;;;;;;;6223621;23;20377;-62
2022/05/09 15:03:59;;;;;;;5.97;5.47;;;;;;;;;;6228065;23;20728;-65
2022/05/09 15:06:54;;;;;;;6.33;5.10;;;;;;;;;;6220486;23;20434;-63
2022/05/09 15:09:25;;;;;;;6.63;5.20;;;;;;;;;;6223332;23;20833;-61
2022/05/09 15:12:01;;;;;;;9.80;6.00;;;;;;;;;;6227208;23;20381;-62
2022/05/09 15:14:27;;;;;;;5.90;5.30;;;;;;;;;;6232790;22;20439;-63
2022/05/09 15:16:53;;;;;;;6.90;6.20;;;;;;;;;;6212859;23;20786;-62
2022/05/09 15:19:34;;;;;;;6.77;6.17;;;;;;;;;;6236590;23;20379;-62
2022/05/09 15:22:01;;;;;;;10.20;5.80;;;;;;;;;;6212742;22;20486;-61
2022/05/09 15:24:27;;;;;;;6.40;5.80;;;;;;;;;;6234347;23;20912;-63
2022/05/09 15:26:54;;;;;;;7.97;5.77;;;;;;;;;;6209470;23;20745;-62
2022/05/09 15:29:20;;;;;;;5.73;5.23;;;;;;;;;;6226307;23;20752;-62
2022/05/09 15:31:46;;;;;;;6.87;6.00;;;;;;;;;;6227345;23;20575;-65
2022/05/09 15:34:14;;;;;;;6.30;5.70;;;;;;;;;;6228608;23;20382;-66
2022/05/09 15:39:44;;;;;;;6.17;5.50;;;;;;;;;;6208283;23;20469;-61
2022/05/09 15:42:22;;;;;;;6.07;5.47;;;;;;;;;;6213098;23;20374;-63
2022/05/09 15:44:48;;;;;;;6.27;5.70;;;;;;;;;;6233320;23;20382;-61
2022/05/09 15:47:14;;;;;;;6.90;6.30;;;;;;;;;;6212739;23;20886;-62
2022/05/09 15:49:40;;;;;;;6.63;6.03;;;;;;;;;;6236407;23;20367;-62
2022/05/09 15:52:11;;;;;;;6.43;5.70;;;;;;;;;;6220406;23;20836;-61
2022/05/09 15:54:41;;;;;;;8.13;6.83;;;;;;;;;;6217418;23;20375;-62
2022/05/09 15:57:07;;;;;;;6.60;6.00;;;;;;;;;;6232788;23;20835;-63
2022/05/09 15:59:33;;;;;;;6.90;6.20;;;;;;;;;;6211341;23;20367;-62
2022/05/09 16:02:00;;;;;;;7.03;5.33;;;;;;;;;;6231699;23;20374;-63
2022/05/09 16:04:26;;;;;;;6.67;6.13;;;;;;;;;;6233038;23;20378;-64
2022/05/09 16:12:44;;;;;;;6.60;6.00;;;;;;;;;;6205029;23;20389;-64
2022/05/09 16:15:11;;;;;;;6.50;5.90;;;;;;;;;;6230844;23;20978;-60
2022/05/09 16:17:41;;;;;;;6.20;5.70;;;;;;;;;;6212812;23;20377;-62
2022/05/09 16:20:08;;;;;;;6.97;6.27;;;;;;;;;;6233577;23;20745;-61
2022/05/09 16:22:34;;;;;;;6.67;6.17;;;;;;;;;;6211695;23;20525;-59
2022/05/09 16:25:00;;;;;;;6.17;5.57;;;;;;;;;;6234982;23;20415;-61
2022/05/09 16:27:27;;;;;;;5.80;5.20;;;;;;;;;;6213662;23;20430;-62
2022/05/09 16:29:54;;;;;;;6.97;6.37;;;;;;;;;;6237469;23;20393;-61
2022/05/09 16:32:20;;;;;;;6.00;5.40;;;;;;;;;;6211386;23;20398;-63
2022/05/09 16:34:46;;;;;;;7.57;5.90;;;;;;;;;;6239328;23;20386;-62
2022/05/09 16:37:36;;;;;;;7.07;6.37;;;;;;;;;;6220886;23;20205;-64
2022/05/09 16:40:02;;;;;;;7.90;6.20;;;;;;;;;;6238209;22;20460;-62
2022/05/09 16:42:32;;;;;;;6.47;5.87;;;;;;;;;;6237166;23;20367;-63
2022/05/09 16:45:00;;;;;;;6.50;5.90;;;;;;;;;;6244855;23;20371;-60
2022/05/09 16:47:27;;;;;;;6.40;5.80;;;;;;;;;;6226386;23;20457;-63
2022/05/09 16:49:53;;;;;;;6.87;6.27;;;;;;;;;;6242138;23;20374;-63
2022/05/09 16:52:19;;;;;;;6.07;5.57;;;;;;;;;;6234824;23;20702;-62
2022/05/09 16:54:51;;;;;;;6.17;5.67;;;;;;;;;;6226439;22;20389;-63
2022/05/09 17:00:22;;;;;;;6.97;6.37;;;;;;;;;;6222898;22;20404;-63
2022/05/09 17:02:57;;;;;;;6.40;5.77;;;;;;;;;;6231105;22;20406;-62
2022/05/09 17:05:33;;;;;;;7.33;6.63;;;;;;;;;;6231127;22;20393;-64